地図

経路データ

SID SEASON NUMBER BASIN SUBBASIN NAME ISO_TIME NATURE LAT LON WMO_WIND WMO_PRES WMO_AGENCY TRACK_TYPE DIST2LAND LANDFALL IFLAG USA_AGENCY USA_ATCF_ID USA_LAT USA_LON USA_RECORD USA_STATUS USA_WIND USA_PRES USA_SSHS USA_R34_NE USA_R34_SE USA_R34_SW USA_R34_NW USA_R50_NE USA_R50_SE USA_R50_SW USA_R50_NW USA_R64_NE USA_R64_SE USA_R64_SW USA_R64_NW USA_POCI USA_ROCI USA_RMW USA_EYE TOKYO_LAT TOKYO_LON TOKYO_GRADE TOKYO_WIND TOKYO_PRES TOKYO_R50_DIR TOKYO_R50_LONG TOKYO_R50_SHORT TOKYO_R30_DIR TOKYO_R30_LONG TOKYO_R30_SHORT TOKYO_LAND CMA_LAT CMA_LON CMA_CAT CMA_WIND CMA_PRES HKO_LAT HKO_LON HKO_CAT HKO_WIND HKO_PRES NEWDELHI_LAT NEWDELHI_LON NEWDELHI_GRADE NEWDELHI_WIND NEWDELHI_PRES NEWDELHI_CI NEWDELHI_DP NEWDELHI_POCI REUNION_LAT REUNION_LON REUNION_TYPE REUNION_WIND REUNION_PRES REUNION_TNUM REUNION_CI REUNION_RMW REUNION_R34_NE REUNION_R34_SE REUNION_R34_SW REUNION_R34_NW REUNION_R50_NE REUNION_R50_SE REUNION_R50_SW REUNION_R50_NW REUNION_R64_NE REUNION_R64_SE REUNION_R64_SW REUNION_R64_NW BOM_LAT BOM_LON BOM_TYPE BOM_WIND BOM_PRES BOM_TNUM BOM_CI BOM_RMW BOM_R34_NE BOM_R34_SE BOM_R34_SW BOM_R34_NW BOM_R50_NE BOM_R50_SE BOM_R50_SW BOM_R50_NW BOM_R64_NE BOM_R64_SE BOM_R64_SW BOM_R64_NW BOM_ROCI BOM_POCI BOM_EYE BOM_POS_METHOD BOM_PRES_METHOD NADI_LAT NADI_LON NADI_CAT NADI_WIND NADI_PRES WELLINGTON_LAT WELLINGTON_LON WELLINGTON_WIND WELLINGTON_PRES DS824_LAT DS824_LON DS824_STAGE DS824_WIND DS824_PRES TD9636_LAT TD9636_LON TD9636_STAGE TD9636_WIND TD9636_PRES TD9635_LAT TD9635_LON TD9635_WIND TD9635_PRES TD9635_ROCI NEUMANN_LAT NEUMANN_LON NEUMANN_CLASS NEUMANN_WIND NEUMANN_PRES MLC_LAT MLC_LON MLC_CLASS MLC_WIND MLC_PRES USA_GUST BOM_GUST BOM_GUST_PER REUNION_GUST REUNION_GUST_PER USA_SEAHGT USA_SEARAD_NE USA_SEARAD_SE USA_SEARAD_SW USA_SEARAD_NW STORM_SPEED STORM_DIR
1935263N17151 1935 52 WP MM NOT_NAMED 1935-09-19 21:00:00 NR 17.0000 151.200 main 2179 2179 __________O___ -1 17.0000 151.200 4 1 293
1935263N17151 1935 52 WP MM NOT_NAMED 1935-09-20 00:00:00 NR 17.0155 151.167 main 2179 2177 __________P___ -1 17.0155 151.167 4 1 293
1935263N17151 1935 52 WP MM NOT_NAMED 1935-09-20 03:00:00 NR 17.0348 151.117 main 2177 2177 __________P___ -1 17.0348 151.117 4 1 291
1935263N17151 1935 52 WP MM NOT_NAMED 1935-09-20 06:00:00 NR 17.0617 151.034 main 2186 2184 __________P___ -1 17.0617 151.034 4 2 287
1935263N17151 1935 52 WP MM NOT_NAMED 1935-09-20 09:00:00 NR 17.1000 150.900 main 2184 2180 __________O___ -1 17.1000 150.900 4 3 286
1935263N17151 1935 52 WP MM NOT_NAMED 1935-09-20 12:00:00 NR 17.1511 150.706 main 2191 2188 __________P___ -1 17.1511 150.706 4 4 285
1935263N17151 1935 52 WP MM NOT_NAMED 1935-09-20 15:00:00 NR 17.2078 150.473 main 2188 2185 __________P___ -1 17.2078 150.473 4 5 283
1935263N17151 1935 52 WP MM NOT_NAMED 1935-09-20 18:00:00 NR 17.2605 150.228 main 2194 2191 __________P___ -1 17.2605 150.228 4 5 282
1935263N17151 1935 52 WP MM NOT_NAMED 1935-09-20 21:00:00 NR 17.3000 150.000 main 2191 2188 __________O___ -1 17.3000 150.000 4 4 279
1935263N17151 1935 52 WP MM NOT_NAMED 1935-09-21 00:00:00 NR 17.3183 149.837 main 2188 2187 __________P___ -1 17.3183 149.837 4 3 274
1935263N17151 1935 52 WP MM NOT_NAMED 1935-09-21 03:00:00 NR 17.3223 149.692 main 2187 2186 __________P___ -1 17.3223 149.692 4 3 269
1935263N17151 1935 52 WP MM NOT_NAMED 1935-09-21 06:00:00 NR 17.3151 149.552 main 2186 2179 __________P___ -1 17.3151 149.552 4 3 265
1935263N17151 1935 52 WP MM NOT_NAMED 1935-09-21 09:00:00 NR 17.3000 149.400 main 2179 2170 __________O___ -1 17.3000 149.400 4 3 263
1935263N17151 1935 52 WP MM NOT_NAMED 1935-09-21 12:00:00 NR 17.2741 149.210 main 2170 2166 __________P___ -1 17.2741 149.210 4 4 261
1935263N17151 1935 52 WP MM NOT_NAMED 1935-09-21 15:00:00 NR 17.2425 149.007 main 2168 2164 __________P___ -1 17.2425 149.007 4 4 261
1935263N17151 1935 52 WP MM NOT_NAMED 1935-09-21 18:00:00 NR 17.2147 148.801 main 2164 2156 __________P___ -1 17.2147 148.801 4 4 264
1935263N17151 1935 52 WP MM NOT_NAMED 1935-09-21 21:00:00 NR 17.2000 148.600 main 2156 2148 __________O___ -1 17.2000 148.600 4 4 265
1935263N17151 1935 52 WP MM NOT_NAMED 1935-09-22 00:00:00 NR 17.1821 148.418 main 2148 2145 __________P___ -1 17.1821 148.418 4 3 267
1935263N17151 1935 52 WP MM NOT_NAMED 1935-09-22 03:00:00 NR 17.1824 148.242 main 2141 2137 __________P___ -1 17.1824 148.242 4 3 276
1935263N17151 1935 52 WP MM NOT_NAMED 1935-09-22 06:00:00 NR 17.2165 148.071 main 2137 2119 __________P___ -1 17.2165 148.071 4 3 290
1935263N17151 1935 52 WP MM NOT_NAMED 1935-09-22 09:00:00 NR 17.3000 147.900 main 2119 2101 __________O___ -1 17.3000 147.900 4 4 303
1935263N17151 1935 52 WP MM NOT_NAMED 1935-09-22 12:00:00 NR 17.4416 147.713 main 2101 2073 __________P___ -1 17.4416 147.713 4 5 313
1935263N17151 1935 52 WP MM NOT_NAMED 1935-09-22 15:00:00 NR 17.6325 147.528 main 2073 2048 __________P___ -1 17.6325 147.528 4 5 321
1935263N17151 1935 52 WP MM NOT_NAMED 1935-09-22 18:00:00 NR 17.8572 147.354 main 2038 2010 __________P___ -1 17.8572 147.354 4 6 326
1935263N17151 1935 52 WP MM NOT_NAMED 1935-09-22 21:00:00 NR 18.1000 147.200 main 2010 1985 __________O___ -1 18.1000 147.200 4 5 332
1935263N17151 1935 52 WP MM NOT_NAMED 1935-09-23 00:00:00 NR 18.3355 147.082 main 1985 1950 __________P___ -1 18.3355 147.082 4 5 337
1935263N17151 1935 52 WP MM NOT_NAMED 1935-09-23 03:00:00 NR 18.5849 146.985 main 1950 1925 __________P___ -1 18.5849 146.985 4 5 341
1935263N17151 1935 52 WP MM NOT_NAMED 1935-09-23 06:00:00 NR 18.8418 146.895 main 1925 1890 __________P___ -1 18.8418 146.895 4 5 341
1935263N17151 1935 52 WP MM NOT_NAMED 1935-09-23 09:00:00 NR 19.1000 146.800 main 1890 1865 __________O___ -1 19.1000 146.800 4 5 337
1935263N17151 1935 52 WP MM NOT_NAMED 1935-09-23 12:00:00 NR 19.3379 146.670 main 1865 1827 __________P___ -1 19.3379 146.670 4 5 332
1935263N17151 1935 52 WP MM NOT_NAMED 1935-09-23 15:00:00 NR 19.5776 146.535 main 1827 1802 __________P___ -1 19.5776 146.535 4 6 333
1935263N17151 1935 52 WP MM NOT_NAMED 1935-09-23 18:00:00 NR 19.8285 146.408 main 1802 1767 __________P___ -1 19.8285 146.408 4 6 337
1935263N17151 1935 52 WP MM NOT_NAMED 1935-09-23 21:00:00 NR 20.1000 146.300 main 1767 1743 __________O___ -1 20.1000 146.300 4 5 342
1935263N17151 1935 52 WP MM NOT_NAMED 1935-09-24 00:00:00 NR 20.3101 146.240 main 1743 1721 __________P___ -1 20.3101 146.240 4 5 348
1935263N17151 1935 52 WP MM NOT_NAMED 1935-09-24 03:00:00 NR 20.5551 146.199 main 1711 1679 __________P___ -1 20.5551 146.199 4 6 352
1935263N17151 1935 52 WP MM NOT_NAMED 1935-09-24 06:00:00 NR 20.8976 146.158 main 1679 1623 __________P___ -1 20.8976 146.158 4 9 354
1935263N17151 1935 52 WP MM NOT_NAMED 1935-09-24 09:00:00 NR 21.4000 146.100 main 1623 1550 __________O___ -1 21.4000 146.100 4 13 356
1935263N17151 1935 52 WP MM NOT_NAMED 1935-09-24 12:00:00 NR 22.1424 146.059 main 1550 1453 __________P___ -1 22.1424 146.059 4 17 356
1935263N17151 1935 52 WP MM NOT_NAMED 1935-09-24 15:00:00 NR 23.0418 145.988 main 1453 1347 __________P___ -1 23.0418 145.988 4 19 354
1935263N17151 1935 52 WP MM NOT_NAMED 1935-09-24 18:00:00 NR 24.0203 145.848 main 1342 1232 __________P___ -1 24.0203 145.848 4 20 350
1935263N17151 1935 52 WP MM NOT_NAMED 1935-09-24 21:00:00 NR 25.0000 145.600 main 1232 1144 __________O___ -1 25.0000 145.600 4 18 339
1935263N17151 1935 52 WP MM NOT_NAMED 1935-09-25 00:00:00 NR 25.7055 145.123 main 1140 1048 __________P___ -1 25.7055 145.123 4 17 326
1935263N17151 1935 52 WP MM NOT_NAMED 1935-09-25 03:00:00 NR 26.4205 144.546 main 1044 943 __________P___ -1 26.4205 144.546 4 19 327
1935263N17151 1935 52 WP MM NOT_NAMED 1935-09-25 06:00:00 NR 27.2746 143.971 main 932 810 __________P___ -1 27.2746 143.971 4 22 335
1935263N17151 1935 52 WP MM NOT_NAMED 1935-09-25 09:00:00 NR 28.4000 143.500 main 800 637 __________O___ -1 28.4000 143.500 4 28 346
1935263N17151 1935 52 WP MM NOT_NAMED 1935-09-25 12:00:00 NR 30.0185 143.203 main 627 448 __________P___ -1 30.0185 143.203 4 35 353
1935263N17151 1935 52 WP MM NOT_NAMED 1935-09-25 15:00:00 NR 31.9049 143.033 main 439 284 __________P___ -1 31.9049 143.033 4 39 357
1935263N17151 1935 52 WP MM NOT_NAMED 1935-09-25 18:00:00 NR 33.8889 142.996 main 277 198 __________P___ -1 33.8889 142.996 4 39 1
1935263N17151 1935 52 WP MM NOT_NAMED 1935-09-25 21:00:00 NR 35.8000 143.100 main 198 185 __________O___ -1 35.8000 143.100 4 34 1
1935263N17151 1935 52 WP MM NOT_NAMED 1935-09-26 00:00:00 NR 37.3264 143.066 main 179 125 __________P___ -1 37.3264 143.066 4 30 2
1935263N17151 1935 52 WP MM NOT_NAMED 1935-09-26 03:00:00 NR 38.7684 143.209 main 120 105 __________P___ -1 38.7684 143.209 4 29 10
1935263N17151 1935 52 WP MM NOT_NAMED 1935-09-26 06:00:00 NR 40.2271 143.692 main 151 112 __________P___ -1 40.2271 143.692 4 32 21
1935263N17151 1935 52 WP MM NOT_NAMED 1935-09-26 09:00:00 NR 41.8000 144.700 main 117 32 __________O___ -1 41.8000 144.700 4 39 31
1935263N17151 1935 52 WP MM NOT_NAMED 1935-09-26 12:00:00 NR 43.5490 146.393 main 65 0 __________P___ -1 43.5490 146.393 4 46 39
1935263N17151 1935 52 WP MM NOT_NAMED 1935-09-26 15:00:00 NR 45.4217 148.734 main 0 0 __________P___ -1 45.4217 148.734 4 53 44
1935263N17151 1935 52 WP MM NOT_NAMED 1935-09-26 18:00:00 NR 47.3331 151.616 main 161 111 __________P___ -1 47.3331 151.616 4 56 48
1935263N17151 1935 52 WP MM NOT_NAMED 1935-09-26 21:00:00 NR 49.2000 154.900 main 95 __________O___ -1 49.2000 154.900 4 57 49

デジタル台風データ・検索

IBTrACS Databaseについて

本データベースは、米国NOAAが公開する1842年以降の世界の熱帯低気圧のベストトラックデータアーカイブInternational Best Track Archive for Climate Stewardship (IBTrACS)を、ウェブで閲覧しやすい形式に変換したものです。

最終更新日:2021-11-26